Skyclear

thermometerI just got the latest forecast report from HG. Here it is:

Hamilton's forecast: TAF CYHM 071739Z 071818 VRB03KT P6SM SKC

Toronto's forecast: TAF CYYZ 072039Z 072118 VRB03KT P6SM SKC

SKC means skyclear which means all systems go. I'll bring my camera and file a full report upon my return.


Share this entry

Comments (1 - click here to join in!)

Doug

Mike, you can get aviation weather here.

A good American site is www.aviationweather.gov

I don't know what sort of algorithm and supercomputer they use- but their turbulence forecasts are usually pretty accurate.

October 8, 2006 @ 8:19 AM

Leave a comment


Only 1 comment? C'mon, we can do better... Leave a comment above and let's keep this conversation going!


« How Ya Like Them Apples? Maple Leafs 2, Montreal Canadiens 3 »